createdAt,value
2018-08-18T00:01:56.210Z,21.30
2018-08-18T00:04:30.841Z,21.25
2018-08-18T00:07:01.788Z,21.24
2018-08-18T00:09:32.094Z,21.23
2018-08-18T00:12:02.157Z,21.14
2018-08-18T00:14:32.404Z,21.14
2018-08-18T00:17:02.214Z,21.13
2018-08-18T00:19:32.132Z,21.09
2018-08-18T00:22:01.961Z,21.04
2018-08-18T00:24:32.246Z,20.98
2018-08-18T00:27:02.121Z,20.96
2018-08-18T00:29:32.031Z,20.94
2018-08-18T00:32:01.918Z,20.90
2018-08-18T00:34:32.147Z,20.86
2018-08-18T00:37:02.249Z,20.83
2018-08-18T00:39:32.117Z,20.80
2018-08-18T00:42:02.654Z,20.77
2018-08-18T00:44:32.591Z,20.74
2018-08-18T00:47:02.444Z,20.73
2018-08-18T00:49:32.461Z,20.70
2018-08-18T00:52:02.288Z,20.66
2018-08-18T00:54:32.842Z,20.59
2018-08-18T00:57:08.896Z,20.59
2018-08-18T00:59:43.048Z,20.56
2018-08-18T01:02:13.171Z,20.53
2018-08-18T01:04:47.902Z,20.48
2018-08-18T01:07:18.064Z,20.43
2018-08-18T01:09:48.176Z,20.42
2018-08-18T01:12:18.333Z,20.37
2018-08-18T01:14:48.440Z,20.33
2018-08-18T01:17:18.508Z,20.29
2018-08-18T01:19:48.420Z,20.25
2018-08-18T01:22:18.270Z,20.19
2018-08-18T01:24:48.310Z,20.18
2018-08-18T01:27:18.118Z,20.15
2018-08-18T01:30:07.466Z,20.11
2018-08-18T01:32:37.621Z,20.07
2018-08-18T01:35:07.658Z,20.05
2018-08-18T01:37:37.554Z,20.03
2018-08-18T01:40:07.657Z,20.00
2018-08-18T01:42:37.524Z,19.96
2018-08-18T01:45:07.564Z,19.92
2018-08-18T01:47:37.458Z,19.89
2018-08-18T01:50:12.156Z,19.87
2018-08-18T01:52:42.084Z,19.86
2018-08-18T01:55:12.242Z,19.82
2018-08-18T01:57:42.121Z,19.79
2018-08-18T02:00:29.061Z,19.73
2018-08-18T02:02:59.173Z,19.70
2018-08-18T02:05:29.129Z,19.66
2018-08-18T02:07:59.101Z,19.64
2018-08-18T02:10:29.345Z,19.64
2018-08-18T02:13:12.654Z,19.62
2018-08-18T02:15:56.342Z,19.61
2018-08-18T02:18:26.205Z,19.58
2018-08-18T02:20:56.180Z,19.54
2018-08-18T02:23:26.126Z,19.37
2018-08-18T02:25:56.062Z,19.19
2018-08-18T02:28:30.412Z,19.01
2018-08-18T02:31:00.506Z,18.99
2018-08-18T02:33:30.581Z,18.93
2018-08-18T02:36:00.374Z,18.95
2018-08-18T02:38:30.347Z,18.97
2018-08-18T02:41:00.421Z,19.01
2018-08-18T02:43:30.417Z,19.05
2018-08-18T02:46:09.922Z,19.08
2018-08-18T02:48:40.097Z,19.10
2018-08-18T02:51:10.409Z,19.13
2018-08-18T02:53:40.399Z,19.14
2018-08-18T02:56:10.949Z,19.00
2018-08-18T02:58:43.204Z,18.98
2018-08-18T03:01:13.620Z,19.01
2018-08-18T03:03:43.660Z,19.08
2018-08-18T03:06:13.851Z,19.10
2018-08-18T03:08:44.137Z,19.18
2018-08-18T03:11:14.150Z,19.18
2018-08-18T03:13:43.985Z,19.24
2018-08-18T03:16:14.392Z,19.31
2018-08-18T03:18:47.571Z,19.38
2018-08-18T03:21:17.828Z,19.51
2018-08-18T03:23:58.808Z,19.60
2018-08-18T03:26:33.760Z,19.69
2018-08-18T03:29:04.304Z,19.78
2018-08-18T03:31:34.331Z,19.88
2018-08-18T03:34:04.450Z,19.99
2018-08-18T03:36:36.977Z,20.10
2018-08-18T03:39:09.995Z,20.18
2018-08-18T03:41:40.196Z,20.25
2018-08-18T03:44:10.092Z,20.29
2018-08-18T03:46:40.063Z,20.33
2018-08-18T03:49:10.085Z,20.37
2018-08-18T03:51:44.506Z,20.39
2018-08-18T03:54:14.827Z,20.43
2018-08-18T03:56:45.499Z,20.42
2018-08-18T03:59:15.548Z,20.43
2018-08-18T04:01:54.636Z,20.43
2018-08-18T04:04:25.990Z,20.42
2018-08-18T04:06:57.243Z,20.43
2018-08-18T04:09:30.325Z,20.42
2018-08-18T04:12:01.701Z,20.40
2018-08-18T04:14:49.618Z,20.39
2018-08-18T04:17:30.258Z,20.37
2018-08-18T04:20:00.638Z,20.35
2018-08-18T04:22:30.522Z,20.39
2018-08-18T04:25:00.492Z,20.35
2018-08-18T04:27:41.080Z,20.33
2018-08-18T04:30:13.520Z,20.35
2018-08-18T04:33:14.419Z,20.34
2018-08-18T04:35:48.617Z,20.35
2018-08-18T04:38:18.834Z,20.29
2018-08-18T04:40:49.047Z,20.30
2018-08-18T04:43:18.934Z,20.26
2018-08-18T04:45:49.045Z,20.27
2018-08-18T04:48:29.892Z,20.29
2018-08-18T04:51:00.294Z,20.27
2018-08-18T04:53:30.098Z,20.24
2018-08-18T04:56:00.104Z,20.25
2018-08-18T04:58:30.054Z,20.27
2018-08-18T05:00:59.911Z,20.27
2018-08-18T05:03:30.209Z,20.23
2018-08-18T05:06:00.066Z,20.26
2018-08-18T05:08:30.320Z,20.28
2018-08-18T05:11:00.170Z,20.33
2018-08-18T05:13:29.946Z,20.33
2018-08-18T05:16:00.174Z,20.38
2018-08-18T05:18:30.588Z,20.39
2018-08-18T05:21:00.652Z,20.47
2018-08-18T05:23:30.809Z,20.50
2018-08-18T05:26:00.869Z,20.51
2018-08-18T05:28:31.290Z,20.55
2018-08-18T05:31:01.129Z,20.62
2018-08-18T05:33:31.098Z,20.69
2018-08-18T05:36:01.694Z,20.70
2018-08-18T05:38:31.993Z,20.68
2018-08-18T05:41:02.516Z,20.73
2018-08-18T05:43:32.350Z,20.76
2018-08-18T05:46:04.878Z,20.74
2018-08-18T05:48:35.218Z,20.79
2018-08-18T05:51:05.376Z,20.86
2018-08-18T05:53:38.484Z,20.91
2018-08-18T05:56:08.803Z,20.90
2018-08-18T05:58:51.741Z,20.96
2018-08-18T06:01:32.510Z,21.03
2018-08-18T06:04:07.676Z,21.14
2018-08-18T06:06:37.833Z,21.23
2018-08-18T06:09:10.784Z,21.26
2018-08-18T06:11:40.863Z,21.16
2018-08-18T06:14:12.489Z,21.27
2018-08-18T06:16:43.630Z,21.37
2018-08-18T06:19:13.919Z,21.43
2018-08-18T06:21:44.491Z,21.43
2018-08-18T06:24:14.528Z,21.40
2018-08-18T06:26:44.743Z,21.46
2018-08-18T06:29:15.058Z,21.60
2018-08-18T06:31:57.681Z,21.85
2018-08-18T06:34:29.721Z,21.98
2018-08-18T06:37:00.444Z,22.04
2018-08-18T06:39:41.119Z,22.14
2018-08-18T06:42:20.662Z,22.17
2018-08-18T06:44:50.703Z,22.26
2018-08-18T06:47:20.677Z,22.40
2018-08-18T06:49:50.711Z,22.44
2018-08-18T06:52:21.349Z,22.42
2018-08-18T06:54:52.653Z,22.46
2018-08-18T06:57:33.533Z,22.37
2018-08-18T07:00:09.649Z,22.27
2018-08-18T07:02:39.967Z,22.31
2018-08-18T07:05:13.182Z,22.31
2018-08-18T07:07:44.325Z,22.43
2018-08-18T07:10:25.596Z,22.51
2018-08-18T07:12:57.044Z,22.58
2018-08-18T07:15:29.492Z,22.63
2018-08-18T07:17:59.977Z,22.82
2018-08-18T07:20:30.992Z,22.97
2018-08-18T07:23:01.269Z,23.01
2018-08-18T07:25:31.181Z,23.03
2018-08-18T07:28:06.411Z,23.21
2018-08-18T07:30:36.393Z,23.27
2018-08-18T07:33:07.022Z,23.22
2018-08-18T07:35:37.182Z,23.18
2018-08-18T07:38:07.188Z,23.21
2018-08-18T07:40:53.528Z,23.25
2018-08-18T07:43:26.691Z,23.25
2018-08-18T07:45:58.298Z,23.32
2018-08-18T07:48:28.226Z,23.40
2018-08-18T07:50:58.381Z,23.48
2018-08-18T07:53:28.398Z,23.52
2018-08-18T07:55:58.519Z,23.53
2018-08-18T07:58:28.535Z,23.60
2018-08-18T08:01:00.037Z,23.64
2018-08-18T08:03:30.306Z,23.64
2018-08-18T08:06:00.228Z,23.67
2018-08-18T08:08:36.665Z,23.71
2018-08-18T08:11:11.638Z,23.83
2018-08-18T08:13:41.701Z,23.93
2018-08-18T08:16:11.662Z,23.94
2018-08-18T08:18:41.691Z,23.95
2018-08-18T08:21:12.290Z,24.00
2018-08-18T08:23:42.258Z,24.10
2018-08-18T08:26:12.426Z,24.24
2018-08-18T08:28:46.495Z,24.32
2018-08-18T08:31:16.617Z,24.45
2018-08-18T08:33:46.680Z,24.61
2018-08-18T08:36:17.808Z,24.82
2018-08-18T08:39:06.569Z,24.99
2018-08-18T08:41:36.864Z,25.08
2018-08-18T08:44:07.081Z,25.15
2018-08-18T08:46:38.668Z,25.25
2018-08-18T08:49:08.809Z,25.35
2018-08-18T08:51:39.343Z,25.52
2018-08-18T08:54:09.317Z,25.60
2018-08-18T08:56:41.003Z,25.64
2018-08-18T08:59:11.272Z,25.60
2018-08-18T09:01:41.373Z,25.66
2018-08-18T09:04:11.755Z,25.69
2018-08-18T09:06:48.690Z,25.78
2018-08-18T09:09:18.546Z,25.88
2018-08-18T09:11:48.509Z,25.85
2018-08-18T09:14:18.445Z,25.78
2018-08-18T09:16:48.308Z,25.81
2018-08-18T09:19:20.280Z,25.84
2018-08-18T09:21:53.684Z,25.87
2018-08-18T09:24:25.865Z,25.88
2018-08-18T09:26:56.994Z,25.86
2018-08-18T09:29:28.378Z,25.97
2018-08-18T09:31:59.658Z,26.01
2018-08-18T09:34:32.872Z,26.06
2018-08-18T09:37:03.044Z,26.02
2018-08-18T09:39:35.418Z,25.95
2018-08-18T09:42:07.431Z,25.97
2018-08-18T09:44:40.602Z,25.88
2018-08-18T09:47:10.436Z,25.81
2018-08-18T09:49:40.349Z,25.74
2018-08-18T09:52:13.874Z,25.82
2018-08-18T09:54:43.700Z,25.85
2018-08-18T09:57:13.837Z,25.87
2018-08-18T09:59:43.882Z,25.86
2018-08-18T10:02:18.559Z,25.71
2018-08-18T10:04:48.337Z,25.67
2018-08-18T10:07:18.405Z,25.55
2018-08-18T10:09:48.248Z,25.61
2018-08-18T10:12:18.113Z,25.58
2018-08-18T10:14:48.164Z,25.68
2018-08-18T10:17:18.076Z,25.63
2018-08-18T10:19:48.258Z,25.61
2018-08-18T10:22:18.171Z,25.60
2018-08-18T10:24:48.218Z,25.43
2018-08-18T10:27:19.811Z,25.45
2018-08-18T10:29:50.064Z,25.46
2018-08-18T10:32:20.149Z,25.52
2018-08-18T10:34:50.190Z,25.41
2018-08-18T10:37:20.900Z,25.39
2018-08-18T10:39:56.499Z,25.24
2018-08-18T10:42:27.185Z,25.25
2018-08-18T10:45:01.032Z,25.26
2018-08-18T10:47:31.374Z,25.18
2018-08-18T10:50:11.843Z,25.06
2018-08-18T10:52:52.486Z,25.08
2018-08-18T10:55:22.373Z,25.13
2018-08-18T10:57:59.272Z,25.06
2018-08-18T11:00:30.536Z,25.05
2018-08-18T11:03:01.812Z,25.07
2018-08-18T11:05:32.426Z,25.08
2018-08-18T11:08:07.405Z,25.10
2018-08-18T11:10:39.940Z,25.10
2018-08-18T11:13:10.095Z,25.13
2018-08-18T11:15:40.216Z,25.10
2018-08-18T11:18:10.276Z,24.96
2018-08-18T11:20:40.155Z,24.94
2018-08-18T11:23:12.390Z,24.78
2018-08-18T11:25:50.968Z,24.75
2018-08-18T11:28:21.668Z,24.65
2018-08-18T11:30:53.609Z,24.56
2018-08-18T11:33:37.373Z,24.35
2018-08-18T11:36:10.014Z,24.43
2018-08-18T11:38:40.095Z,24.28
2018-08-18T11:41:09.943Z,24.34
2018-08-18T11:43:54.872Z,24.26
2018-08-18T11:46:24.945Z,24.24
2018-08-18T11:48:55.364Z,24.11
2018-08-18T11:51:28.978Z,24.17
2018-08-18T11:54:02.122Z,24.35
2018-08-18T11:56:33.599Z,24.52
2018-08-18T11:59:09.365Z,24.85
2018-08-18T12:01:40.838Z,24.97
2018-08-18T12:04:11.347Z,25.02
2018-08-18T12:07:02.464Z,25.26
2018-08-18T12:09:32.374Z,25.69
2018-08-18T12:12:02.284Z,26.10
2018-08-18T12:14:32.144Z,26.36
2018-08-18T12:17:02.053Z,26.64
2018-08-18T12:19:32.415Z,27.04
2018-08-18T12:22:02.320Z,27.16
2018-08-18T12:24:32.109Z,27.41
2018-08-18T12:27:10.954Z,27.60
2018-08-18T12:29:40.992Z,28.05
2018-08-18T12:32:16.124Z,28.32
2018-08-18T12:34:46.329Z,28.57
2018-08-18T12:37:16.556Z,28.81
2018-08-18T12:39:46.456Z,28.92
2018-08-18T12:42:21.121Z,29.13
2018-08-18T12:44:51.047Z,29.22
2018-08-18T12:47:20.997Z,29.56
2018-08-18T12:49:52.553Z,29.70
2018-08-18T12:52:22.589Z,29.52
2018-08-18T12:54:52.411Z,29.50
2018-08-18T12:57:32.697Z,29.70
2018-08-18T13:00:04.926Z,29.92
2018-08-18T13:02:43.172Z,30.12
2018-08-18T13:05:13.628Z,30.26
2018-08-18T13:07:44.118Z,30.22
2018-08-18T13:10:18.667Z,30.05
2018-08-18T13:12:49.464Z,29.98
2018-08-18T13:15:20.147Z,30.01
2018-08-18T13:17:50.107Z,30.09
2018-08-18T13:20:23.466Z,30.18
2018-08-18T13:22:53.319Z,30.26
2018-08-18T13:25:23.314Z,30.38
2018-08-18T13:27:54.017Z,30.59
2018-08-18T13:30:24.713Z,30.83
2018-08-18T13:32:58.268Z,31.02
2018-08-18T13:35:28.104Z,31.22
2018-08-18T13:37:58.526Z,31.33
2018-08-18T13:40:29.254Z,31.60
2018-08-18T13:42:59.222Z,31.48
2018-08-18T13:45:49.020Z,31.40
2018-08-18T13:48:18.842Z,31.64
2018-08-18T13:50:50.003Z,31.81
2018-08-18T13:53:20.161Z,31.87
2018-08-18T13:55:50.114Z,32.01
2018-08-18T13:58:20.587Z,32.07
2018-08-18T14:00:50.737Z,32.24
2018-08-18T14:03:27.807Z,32.44
2018-08-18T14:05:58.126Z,32.65
2018-08-18T14:08:28.025Z,32.77
2018-08-18T14:10:57.879Z,32.87
2018-08-18T14:13:28.558Z,32.93
2018-08-18T14:15:58.655Z,32.80
2018-08-18T14:18:28.619Z,32.67
2018-08-18T14:21:04.894Z,32.83
2018-08-18T14:23:35.075Z,33.07
2018-08-18T14:26:05.984Z,33.19
2018-08-18T14:28:36.216Z,33.27
2018-08-18T14:31:06.458Z,33.14
2018-08-18T14:33:36.841Z,33.21
2018-08-18T14:36:11.349Z,33.22
2018-08-18T14:38:42.305Z,33.34
2018-08-18T14:41:12.876Z,33.03
2018-08-18T14:43:43.652Z,33.15
2018-08-18T14:46:15.598Z,33.12
2018-08-18T14:48:45.854Z,32.96
2018-08-18T14:51:16.789Z,33.02
2018-08-18T14:53:47.169Z,33.22
2018-08-18T14:56:17.398Z,33.39
2018-08-18T14:58:47.623Z,33.49
2018-08-18T15:01:18.045Z,33.66
2018-08-18T15:03:48.187Z,33.63
2018-08-18T15:06:18.231Z,33.49
2018-08-18T15:08:48.278Z,33.42
2018-08-18T15:11:18.362Z,33.44
2018-08-18T15:13:48.471Z,33.38
2018-08-18T15:16:20.404Z,33.00
2018-08-18T15:18:50.454Z,33.07
2018-08-18T15:21:21.034Z,32.94
2018-08-18T15:23:51.840Z,32.89
2018-08-18T15:26:22.172Z,32.97
2018-08-18T15:28:52.604Z,32.95
2018-08-18T15:31:23.372Z,32.89
2018-08-18T15:33:53.869Z,32.99
2018-08-18T15:36:33.744Z,33.10
2018-08-18T15:39:04.233Z,33.13
2018-08-18T15:41:34.917Z,33.21
2018-08-18T15:44:08.766Z,33.25
2018-08-18T15:46:39.072Z,33.29
2018-08-18T15:49:09.208Z,33.37
2018-08-18T15:51:39.255Z,33.33
2018-08-18T15:54:09.375Z,33.40
2018-08-18T15:56:39.406Z,33.33
2018-08-18T15:59:09.427Z,33.14
2018-08-18T16:01:39.456Z,33.05
2018-08-18T16:04:09.553Z,32.93
2018-08-18T16:06:39.528Z,33.00
2018-08-18T16:09:10.292Z,33.08
2018-08-18T16:11:40.594Z,33.18
2018-08-18T16:14:10.604Z,33.22
2018-08-18T16:16:56.808Z,33.17
2018-08-18T16:19:27.499Z,33.13
2018-08-18T16:21:57.597Z,33.06
2018-08-18T16:24:32.649Z,33.04
2018-08-18T16:27:05.389Z,32.91
2018-08-18T16:29:35.824Z,32.74
2018-08-18T16:32:22.516Z,32.71
2018-08-18T16:35:00.254Z,32.53
2018-08-18T16:37:30.796Z,32.51
2018-08-18T16:40:01.144Z,32.56
2018-08-18T16:42:33.261Z,32.57
2018-08-18T16:45:03.346Z,32.54
2018-08-18T16:47:38.404Z,32.50
2018-08-18T16:50:08.469Z,32.47
2018-08-18T16:52:38.572Z,32.41
2018-08-18T16:55:08.586Z,32.37
2018-08-18T16:57:38.694Z,32.29
2018-08-18T17:00:09.198Z,32.25
2018-08-18T17:02:40.014Z,32.23
2018-08-18T17:05:10.886Z,32.20
2018-08-18T17:07:43.841Z,32.16
2018-08-18T17:10:14.234Z,32.07
2018-08-18T17:12:44.291Z,32.08
2018-08-18T17:15:14.499Z,32.01
2018-08-18T17:17:48.475Z,31.97
2018-08-18T17:20:18.536Z,31.91
2018-08-18T17:22:48.568Z,31.81
2018-08-18T17:25:18.553Z,31.74
2018-08-18T17:27:48.641Z,31.69
2018-08-18T17:30:18.928Z,31.58
2018-08-18T17:32:49.256Z,31.49
2018-08-18T17:35:19.505Z,31.42
2018-08-18T17:37:49.677Z,31.36
2018-08-18T17:40:20.036Z,31.24
2018-08-18T17:42:50.258Z,31.17
2018-08-18T17:45:20.705Z,31.06
2018-08-18T17:47:54.030Z,30.93
2018-08-18T17:50:24.346Z,30.81
2018-08-18T17:52:54.375Z,30.72
2018-08-18T17:55:25.057Z,30.64
2018-08-18T17:57:55.037Z,30.58
2018-08-18T18:00:25.214Z,30.45
2018-08-18T18:02:57.635Z,30.35
2018-08-18T18:05:30.444Z,30.23
2018-08-18T18:08:03.633Z,30.13
2018-08-18T18:10:35.188Z,30.01
2018-08-18T18:13:17.015Z,29.88
2018-08-18T18:15:48.585Z,29.77
2018-08-18T18:18:20.018Z,29.65
2018-08-18T18:20:51.777Z,29.53
2018-08-18T18:23:22.506Z,29.38
2018-08-18T18:25:52.691Z,29.26
2018-08-18T18:28:22.780Z,29.15
2018-08-18T18:30:54.173Z,28.97
2018-08-18T18:33:24.027Z,28.89
2018-08-18T18:35:54.020Z,28.83
2018-08-18T18:38:24.579Z,28.69
2018-08-18T18:40:54.538Z,28.57
2018-08-18T18:43:24.701Z,28.48
2018-08-18T18:45:54.835Z,28.36
2018-08-18T18:48:25.474Z,28.23
2018-08-18T18:50:59.148Z,28.17
2018-08-18T18:53:37.877Z,28.07
2018-08-18T18:56:08.861Z,27.99
2018-08-18T18:58:39.712Z,27.89
2018-08-18T19:01:09.826Z,27.78
2018-08-18T19:03:40.458Z,27.68
2018-08-18T19:06:10.550Z,27.56
2018-08-18T19:08:56.351Z,27.47
2018-08-18T19:11:27.338Z,27.38
2018-08-18T19:13:57.549Z,27.29
2018-08-18T19:16:27.592Z,27.24
2018-08-18T19:18:58.598Z,27.20
2018-08-18T19:21:32.692Z,27.11
2018-08-18T19:24:11.786Z,26.99
2018-08-18T19:26:52.487Z,26.90
2018-08-18T19:29:25.035Z,26.77
2018-08-18T19:31:57.846Z,26.72
2018-08-18T19:34:28.521Z,26.65
2018-08-18T19:37:05.397Z,26.40
2018-08-18T19:39:36.666Z,26.44
2018-08-18T19:42:12.465Z,26.37
2018-08-18T19:44:47.340Z,26.30
2018-08-18T19:47:23.844Z,26.24
2018-08-18T19:49:54.873Z,26.18
2018-08-18T19:52:26.060Z,26.14
2018-08-18T19:54:57.266Z,26.06
2018-08-18T19:57:32.072Z,25.98
2018-08-18T20:00:19.150Z,25.92
2018-08-18T20:03:00.061Z,25.84
2018-08-18T20:05:30.462Z,25.72
2018-08-18T20:08:00.417Z,25.66
2018-08-18T20:10:30.482Z,25.57
2018-08-18T20:13:00.659Z,25.49
2018-08-18T20:15:30.478Z,25.42
2018-08-18T20:18:00.498Z,25.35
2018-08-18T20:20:30.595Z,25.30
2018-08-18T20:23:01.757Z,25.21
2018-08-18T20:25:32.811Z,25.13
2018-08-18T20:28:03.592Z,25.04
2018-08-18T20:30:34.653Z,24.87
2018-08-18T20:33:05.773Z,24.83
2018-08-18T20:35:36.821Z,24.81
2018-08-18T20:38:08.032Z,24.75
2018-08-18T20:40:38.565Z,24.73
2018-08-18T20:43:09.792Z,24.69
2018-08-18T20:45:45.391Z,24.61
2018-08-18T20:48:17.843Z,24.59
2018-08-18T20:50:48.292Z,24.55
2018-08-18T20:53:18.672Z,24.49
2018-08-18T20:56:00.491Z,24.41
2018-08-18T20:58:32.893Z,24.35
2018-08-18T21:01:03.545Z,24.31
2018-08-18T21:03:46.967Z,24.26
2018-08-18T21:06:17.965Z,24.18
2018-08-18T21:08:48.425Z,24.13
2018-08-18T21:11:18.588Z,24.06
2018-08-18T21:13:50.086Z,24.02
2018-08-18T21:16:21.085Z,23.96
2018-08-18T21:18:51.119Z,23.92
2018-08-18T21:21:35.761Z,23.86
2018-08-18T21:24:06.048Z,23.81
2018-08-18T21:26:36.127Z,23.72
2018-08-18T21:29:06.317Z,23.73
2018-08-18T21:31:37.464Z,23.70
2018-08-18T21:34:08.433Z,23.63
2018-08-18T21:36:38.292Z,23.58
2018-08-18T21:39:10.264Z,23.52
2018-08-18T21:41:42.011Z,23.51
2018-08-18T21:44:13.491Z,23.46
2018-08-18T21:46:43.729Z,23.41
2018-08-18T21:49:14.379Z,23.36
2018-08-18T21:51:44.319Z,23.28
2018-08-18T21:54:14.369Z,23.25
2018-08-18T21:56:49.788Z,23.21
2018-08-18T21:59:20.317Z,23.20
2018-08-18T22:01:50.821Z,23.16
2018-08-18T22:04:21.518Z,23.11
2018-08-18T22:06:51.768Z,23.09
2018-08-18T22:09:29.535Z,23.02
2018-08-18T22:11:59.857Z,22.97
2018-08-18T22:14:32.861Z,22.92
2018-08-18T22:17:03.205Z,22.86
2018-08-18T22:19:33.319Z,22.82
2018-08-18T22:22:03.521Z,22.79
2018-08-18T22:24:33.371Z,22.78
2018-08-18T22:27:03.230Z,22.75
2018-08-18T22:29:33.076Z,22.70
2018-08-18T22:32:09.209Z,22.63
2018-08-18T22:34:39.389Z,22.63
2018-08-18T22:37:15.426Z,22.61
2018-08-18T22:39:45.472Z,22.58
2018-08-18T22:42:15.262Z,22.43
2018-08-18T22:44:45.054Z,22.51
2018-08-18T22:47:15.074Z,22.51
2018-08-18T22:49:44.990Z,22.45
2018-08-18T22:52:15.142Z,22.39
2018-08-18T22:54:45.186Z,22.27
2018-08-18T22:57:15.529Z,22.12
2018-08-18T22:59:45.567Z,22.13
2018-08-18T23:02:15.534Z,22.16
2018-08-18T23:04:45.674Z,22.08
2018-08-18T23:07:15.936Z,22.11
2018-08-18T23:09:46.137Z,22.10
2018-08-18T23:12:16.152Z,22.10
2018-08-18T23:14:46.265Z,22.06
2018-08-18T23:17:16.294Z,22.03
2018-08-18T23:19:46.291Z,22.02
2018-08-18T23:22:26.721Z,22.01
2018-08-18T23:24:57.021Z,21.99
2018-08-18T23:27:28.468Z,21.95
2018-08-18T23:30:00.402Z,21.93
2018-08-18T23:32:30.454Z,21.90
2018-08-18T23:35:00.399Z,21.89
2018-08-18T23:37:30.380Z,21.88
2018-08-18T23:40:00.440Z,21.88
2018-08-18T23:42:30.388Z,21.85
2018-08-18T23:45:00.568Z,21.83
2018-08-18T23:47:30.520Z,21.79
2018-08-18T23:50:00.521Z,21.76
2018-08-18T23:52:30.829Z,21.72
2018-08-18T23:55:01.137Z,21.69
2018-08-18T23:57:31.160Z,21.66
